sensor_id;sensor_type;location;lat;lon;timestamp;P1;durP1;ratioP1;P2;durP2;ratioP2
68074;SDS011;54864;52.002;5.468;2023-02-27T00:00:17;8.80;;;3.65;;
68074;SDS011;54864;52.002;5.468;2023-02-27T00:01:19;9.77;;;3.85;;
68074;SDS011;54864;52.002;5.468;2023-02-27T00:02:23;8.23;;;3.40;;
68074;SDS011;54864;52.002;5.468;2023-02-27T00:03:24;7.93;;;3.67;;
68074;SDS011;54864;52.002;5.468;2023-02-27T00:04:27;8.73;;;3.40;;
68074;SDS011;54864;52.002;5.468;2023-02-27T00:05:28;9.07;;;3.28;;
68074;SDS011;54864;52.002;5.468;2023-02-27T00:06:30;9.27;;;3.80;;
68074;SDS011;54864;52.002;5.468;2023-02-27T00:07:31;8.20;;;3.58;;
68074;SDS011;54864;52.002;5.468;2023-02-27T00:08:32;9.52;;;3.75;;
68074;SDS011;54864;52.002;5.468;2023-02-27T00:09:35;8.02;;;3.80;;
68074;SDS011;54864;52.002;5.468;2023-02-27T00:10:39;8.98;;;3.70;;
68074;SDS011;54864;52.002;5.468;2023-02-27T00:11:45;9.93;;;3.80;;
68074;SDS011;54864;52.002;5.468;2023-02-27T00:12:48;8.95;;;3.95;;
68074;SDS011;54864;52.002;5.468;2023-02-27T00:13:49;7.73;;;3.53;;
68074;SDS011;54864;52.002;5.468;2023-02-27T00:14:51;8.05;;;3.22;;
68074;SDS011;54864;52.002;5.468;2023-02-27T00:15:51;11.70;;;3.70;;
68074;SDS011;54864;52.002;5.468;2023-02-27T00:16:55;8.95;;;3.50;;
68074;SDS011;54864;52.002;5.468;2023-02-27T00:17:57;10.43;;;3.78;;
68074;SDS011;54864;52.002;5.468;2023-02-27T00:19:00;9.80;;;3.67;;
68074;SDS011;54864;52.002;5.468;2023-02-27T00:20:04;9.93;;;3.67;;
68074;SDS011;54864;52.002;5.468;2023-02-27T00:21:08;10.57;;;4.07;;
68074;SDS011;54864;52.002;5.468;2023-02-27T00:22:09;7.70;;;3.70;;
68074;SDS011;54864;52.002;5.468;2023-02-27T00:23:11;10.10;;;4.00;;
68074;SDS011;54864;52.002;5.468;2023-02-27T00:24:12;6.03;;;3.72;;
68074;SDS011;54864;52.002;5.468;2023-02-27T00:25:14;9.07;;;3.53;;
68074;SDS011;54864;52.002;5.468;2023-02-27T00:26:15;9.20;;;3.67;;
68074;SDS011;54864;52.002;5.468;2023-02-27T00:27:16;11.02;;;4.03;;
68074;SDS011;54864;52.002;5.468;2023-02-27T00:28:17;10.07;;;3.50;;
68074;SDS011;54864;52.002;5.468;2023-02-27T00:29:19;10.60;;;4.07;;
68074;SDS011;54864;52.002;5.468;2023-02-27T00:30:20;7.50;;;3.40;;
68074;SDS011;54864;52.002;5.468;2023-02-27T00:31:22;8.45;;;3.53;;
68074;SDS011;54864;52.002;5.468;2023-02-27T00:32:24;9.80;;;3.67;;
68074;SDS011;54864;52.002;5.468;2023-02-27T00:33:26;11.15;;;3.92;;
68074;SDS011;54864;52.002;5.468;2023-02-27T00:34:28;11.75;;;3.83;;
68074;SDS011;54864;52.002;5.468;2023-02-27T00:35:29;9.35;;;3.55;;
68074;SDS011;54864;52.002;5.468;2023-02-27T00:36:30;10.65;;;3.40;;
68074;SDS011;54864;52.002;5.468;2023-02-27T00:37:31;8.95;;;4.00;;
68074;SDS011;54864;52.002;5.468;2023-02-27T00:38:34;10.77;;;3.85;;
68074;SDS011;54864;52.002;5.468;2023-02-27T00:39:35;8.93;;;3.35;;
68074;SDS011;54864;52.002;5.468;2023-02-27T00:40:37;6.93;;;3.40;;
68074;SDS011;54864;52.002;5.468;2023-02-27T00:41:38;8.25;;;3.92;;
68074;SDS011;54864;52.002;5.468;2023-02-27T00:42:46;9.93;;;3.65;;
68074;SDS011;54864;52.002;5.468;2023-02-27T00:43:48;9.90;;;3.45;;
68074;SDS011;54864;52.002;5.468;2023-02-27T00:44:50;10.57;;;3.42;;
68074;SDS011;54864;52.002;5.468;2023-02-27T00:45:53;10.93;;;3.67;;
68074;SDS011;54864;52.002;5.468;2023-02-27T00:46:54;11.30;;;3.90;;
68074;SDS011;54864;52.002;5.468;2023-02-27T00:47:55;10.82;;;4.18;;
68074;SDS011;54864;52.002;5.468;2023-02-27T00:48:58;8.65;;;3.80;;
68074;SDS011;54864;52.002;5.468;2023-02-27T00:50:01;11.57;;;4.20;;
68074;SDS011;54864;52.002;5.468;2023-02-27T00:51:03;10.32;;;4.13;;
68074;SDS011;54864;52.002;5.468;2023-02-27T00:52:05;8.25;;;3.80;;
68074;SDS011;54864;52.002;5.468;2023-02-27T00:53:06;8.60;;;3.72;;
68074;SDS011;54864;52.002;5.468;2023-02-27T00:54:08;10.98;;;3.55;;
68074;SDS011;54864;52.002;5.468;2023-02-27T00:55:09;13.18;;;3.78;;
68074;SDS011;54864;52.002;5.468;2023-02-27T00:56:11;9.18;;;3.90;;
68074;SDS011;54864;52.002;5.468;2023-02-27T00:57:11;12.77;;;3.60;;
68074;SDS011;54864;52.002;5.468;2023-02-27T00:58:13;11.20;;;3.65;;
68074;SDS011;54864;52.002;5.468;2023-02-27T00:59:14;9.77;;;4.20;;
68074;SDS011;54864;52.002;5.468;2023-02-27T01:00:16;9.30;;;3.50;;
68074;SDS011;54864;52.002;5.468;2023-02-27T01:01:17;9.82;;;3.55;;
68074;SDS011;54864;52.002;5.468;2023-02-27T01:02:19;9.30;;;3.63;;
68074;SDS011;54864;52.002;5.468;2023-02-27T01:03:20;12.50;;;3.95;;
68074;SDS011;54864;52.002;5.468;2023-02-27T01:04:23;12.88;;;4.07;;
68074;SDS011;54864;52.002;5.468;2023-02-27T01:05:24;10.00;;;4.00;;
68074;SDS011;54864;52.002;5.468;2023-02-27T01:06:26;10.27;;;3.90;;
68074;SDS011;54864;52.002;5.468;2023-02-27T01:07:27;11.70;;;4.40;;
68074;SDS011;54864;52.002;5.468;2023-02-27T01:08:29;10.43;;;4.10;;
68074;SDS011;54864;52.002;5.468;2023-02-27T01:09:29;8.55;;;3.45;;
68074;SDS011;54864;52.002;5.468;2023-02-27T01:10:31;9.57;;;3.55;;
68074;SDS011;54864;52.002;5.468;2023-02-27T01:11:32;5.78;;;3.20;;
68074;SDS011;54864;52.002;5.468;2023-02-27T01:12:34;7.55;;;3.70;;
68074;SDS011;54864;52.002;5.468;2023-02-27T01:13:35;6.75;;;3.45;;
68074;SDS011;54864;52.002;5.468;2023-02-27T01:14:36;11.40;;;4.20;;
68074;SDS011;54864;52.002;5.468;2023-02-27T01:15:40;6.28;;;4.07;;
68074;SDS011;54864;52.002;5.468;2023-02-27T01:16:42;8.95;;;4.00;;
68074;SDS011;54864;52.002;5.468;2023-02-27T01:17:43;10.40;;;4.35;;
68074;SDS011;54864;52.002;5.468;2023-02-27T01:18:47;11.40;;;3.95;;
68074;SDS011;54864;52.002;5.468;2023-02-27T01:19:50;10.68;;;3.70;;
68074;SDS011;54864;52.002;5.468;2023-02-27T01:20:52;7.72;;;3.58;;
68074;SDS011;54864;52.002;5.468;2023-02-27T01:21:53;9.95;;;3.80;;
68074;SDS011;54864;52.002;5.468;2023-02-27T01:22:55;7.30;;;3.50;;
68074;SDS011;54864;52.002;5.468;2023-02-27T01:23:56;10.20;;;3.92;;
68074;SDS011;54864;52.002;5.468;2023-02-27T01:24:58;13.98;;;3.90;;
68074;SDS011;54864;52.002;5.468;2023-02-27T01:25:58;8.70;;;3.72;;
68074;SDS011;54864;52.002;5.468;2023-02-27T01:27:02;9.00;;;3.90;;
68074;SDS011;54864;52.002;5.468;2023-02-27T01:28:04;8.13;;;3.87;;
68074;SDS011;54864;52.002;5.468;2023-02-27T01:29:05;8.45;;;3.58;;
68074;SDS011;54864;52.002;5.468;2023-02-27T01:30:07;10.18;;;3.78;;
68074;SDS011;54864;52.002;5.468;2023-02-27T01:31:10;11.10;;;3.92;;
68074;SDS011;54864;52.002;5.468;2023-02-27T01:32:11;9.05;;;3.85;;
68074;SDS011;54864;52.002;5.468;2023-02-27T01:33:13;9.27;;;4.05;;
68074;SDS011;54864;52.002;5.468;2023-02-27T01:34:14;8.98;;;3.90;;
68074;SDS011;54864;52.002;5.468;2023-02-27T01:35:18;10.20;;;4.30;;
68074;SDS011;54864;52.002;5.468;2023-02-27T01:36:18;10.07;;;3.97;;
68074;SDS011;54864;52.002;5.468;2023-02-27T01:37:20;8.95;;;3.85;;
68074;SDS011;54864;52.002;5.468;2023-02-27T01:38:21;8.32;;;3.67;;
68074;SDS011;54864;52.002;5.468;2023-02-27T01:39:23;10.65;;;4.07;;
68074;SDS011;54864;52.002;5.468;2023-02-27T01:40:25;8.88;;;3.78;;
68074;SDS011;54864;52.002;5.468;2023-02-27T01:41:27;8.95;;;3.35;;
68074;SDS011;54864;52.002;5.468;2023-02-27T01:42:28;12.40;;;4.10;;
68074;SDS011;54864;52.002;5.468;2023-02-27T01:43:31;11.35;;;4.03;;
68074;SDS011;54864;52.002;5.468;2023-02-27T01:44:33;7.88;;;3.65;;
68074;SDS011;54864;52.002;5.468;2023-02-27T01:46:13;12.32;;;4.40;;
68074;SDS011;54864;52.002;5.468;2023-02-27T01:47:14;8.68;;;3.92;;
68074;SDS011;54864;52.002;5.468;2023-02-27T01:48:17;9.13;;;4.00;;
68074;SDS011;54864;52.002;5.468;2023-02-27T01:49:22;10.98;;;4.10;;
68074;SDS011;54864;52.002;5.468;2023-02-27T01:50:29;10.38;;;3.95;;
68074;SDS011;54864;52.002;5.468;2023-02-27T01:51:31;13.07;;;4.20;;
68074;SDS011;54864;52.002;5.468;2023-02-27T01:52:37;8.70;;;3.90;;
68074;SDS011;54864;52.002;5.468;2023-02-27T01:53:39;10.32;;;3.85;;
68074;SDS011;54864;52.002;5.468;2023-02-27T01:54:46;7.68;;;3.60;;
68074;SDS011;54864;52.002;5.468;2023-02-27T01:55:47;10.52;;;4.00;;
68074;SDS011;54864;52.002;5.468;2023-02-27T01:56:49;6.13;;;3.65;;
68074;SDS011;54864;52.002;5.468;2023-02-27T01:57:51;11.80;;;4.13;;
68074;SDS011;54864;52.002;5.468;2023-02-27T01:58:54;8.52;;;3.72;;
68074;SDS011;54864;52.002;5.468;2023-02-27T01:59:57;10.37;;;4.20;;
68074;SDS011;54864;52.002;5.468;2023-02-27T02:00:59;10.07;;;3.67;;
68074;SDS011;54864;52.002;5.468;2023-02-27T02:02:00;7.32;;;4.10;;
68074;SDS011;54864;52.002;5.468;2023-02-27T02:03:07;10.77;;;4.00;;
68074;SDS011;54864;52.002;5.468;2023-02-27T02:04:14;11.30;;;3.83;;
68074;SDS011;54864;52.002;5.468;2023-02-27T02:05:22;11.07;;;4.10;;
68074;SDS011;54864;52.002;5.468;2023-02-27T02:06:25;10.25;;;3.95;;
68074;SDS011;54864;52.002;5.468;2023-02-27T02:07:29;10.10;;;4.07;;
68074;SDS011;54864;52.002;5.468;2023-02-27T02:08:30;8.70;;;3.47;;
68074;SDS011;54864;52.002;5.468;2023-02-27T02:09:37;11.57;;;3.83;;
68074;SDS011;54864;52.002;5.468;2023-02-27T02:10:44;9.75;;;4.00;;
68074;SDS011;54864;52.002;5.468;2023-02-27T02:11:48;10.70;;;4.03;;
68074;SDS011;54864;52.002;5.468;2023-02-27T02:12:49;10.85;;;4.03;;
68074;SDS011;54864;52.002;5.468;2023-02-27T02:13:54;6.97;;;3.70;;
68074;SDS011;54864;52.002;5.468;2023-02-27T02:14:56;8.95;;;3.80;;
68074;SDS011;54864;52.002;5.468;2023-02-27T02:16:03;12.45;;;3.75;;
68074;SDS011;54864;52.002;5.468;2023-02-27T02:17:16;9.35;;;3.67;;
68074;SDS011;54864;52.002;5.468;2023-02-27T02:18:29;14.13;;;3.92;;
68074;SDS011;54864;52.002;5.468;2023-02-27T02:19:46;9.10;;;3.80;;
68074;SDS011;54864;52.002;5.468;2023-02-27T02:23:27;11.32;;;3.90;;
68074;SDS011;54864;52.002;5.468;2023-02-27T02:24:59;9.20;;;3.88;;
68074;SDS011;54864;52.002;5.468;2023-02-27T02:26:28;10.75;;;4.10;;
68074;SDS011;54864;52.002;5.468;2023-02-27T02:27:41;12.07;;;4.17;;
68074;SDS011;54864;52.002;5.468;2023-02-27T02:30:31;17.05;;;4.80;;
68074;SDS011;54864;52.002;5.468;2023-02-27T02:32:14;9.63;;;4.18;;
68074;SDS011;54864;52.002;5.468;2023-02-27T02:33:57;8.25;;;3.85;;
68074;SDS011;54864;52.002;5.468;2023-02-27T02:35:29;8.70;;;3.58;;
68074;SDS011;54864;52.002;5.468;2023-02-27T02:37:22;9.52;;;4.03;;
68074;SDS011;54864;52.002;5.468;2023-02-27T02:38:44;11.65;;;3.70;;
68074;SDS011;54864;52.002;5.468;2023-02-27T02:39:58;10.00;;;4.10;;
68074;SDS011;54864;52.002;5.468;2023-02-27T02:41:10;11.43;;;4.03;;
68074;SDS011;54864;52.002;5.468;2023-02-27T02:42:19;9.55;;;3.72;;
68074;SDS011;54864;52.002;5.468;2023-02-27T02:43:24;12.07;;;3.92;;
68074;SDS011;54864;52.002;5.468;2023-02-27T02:44:32;11.95;;;4.55;;
68074;SDS011;54864;52.002;5.468;2023-02-27T02:45:42;11.52;;;3.95;;
68074;SDS011;54864;52.002;5.468;2023-02-27T02:46:53;8.02;;;4.03;;
68074;SDS011;54864;52.002;5.468;2023-02-27T02:48:03;11.93;;;4.28;;
68074;SDS011;54864;52.002;5.468;2023-02-27T02:49:14;9.43;;;4.40;;
68074;SDS011;54864;52.002;5.468;2023-02-27T02:50:24;8.40;;;4.10;;
68074;SDS011;54864;52.002;5.468;2023-02-27T02:51:29;9.90;;;3.75;;
68074;SDS011;54864;52.002;5.468;2023-02-27T02:52:41;11.32;;;4.07;;
68074;SDS011;54864;52.002;5.468;2023-02-27T02:53:47;6.50;;;3.70;;
68074;SDS011;54864;52.002;5.468;2023-02-27T02:54:54;8.00;;;3.33;;
68074;SDS011;54864;52.002;5.468;2023-02-27T02:56:01;5.47;;;3.47;;
68074;SDS011;54864;52.002;5.468;2023-02-27T02:57:08;11.93;;;4.32;;
68074;SDS011;54864;52.002;5.468;2023-02-27T02:58:16;9.80;;;3.72;;
68074;SDS011;54864;52.002;5.468;2023-02-27T02:59:25;10.75;;;4.07;;
68074;SDS011;54864;52.002;5.468;2023-02-27T03:00:31;9.43;;;3.92;;
68074;SDS011;54864;52.002;5.468;2023-02-27T03:01:38;8.43;;;3.88;;
68074;SDS011;54864;52.002;5.468;2023-02-27T03:02:48;10.70;;;4.30;;
68074;SDS011;54864;52.002;5.468;2023-02-27T03:03:57;8.05;;;3.47;;
68074;SDS011;54864;52.002;5.468;2023-02-27T03:05:06;11.00;;;3.75;;
68074;SDS011;54864;52.002;5.468;2023-02-27T03:06:13;9.18;;;3.60;;
68074;SDS011;54864;52.002;5.468;2023-02-27T03:07:18;7.45;;;3.67;;
68074;SDS011;54864;52.002;5.468;2023-02-27T03:08:25;11.45;;;3.67;;
68074;SDS011;54864;52.002;5.468;2023-02-27T03:09:37;7.93;;;3.60;;
68074;SDS011;54864;52.002;5.468;2023-02-27T03:10:47;6.03;;;3.40;;
68074;SDS011;54864;52.002;5.468;2023-02-27T03:11:51;7.15;;;3.53;;
68074;SDS011;54864;52.002;5.468;2023-02-27T03:12:58;8.80;;;4.03;;
68074;SDS011;54864;52.002;5.468;2023-02-27T03:14:03;11.27;;;3.53;;
68074;SDS011;54864;52.002;5.468;2023-02-27T03:15:11;10.77;;;3.67;;
68074;SDS011;54864;52.002;5.468;2023-02-27T03:16:18;11.80;;;3.67;;
68074;SDS011;54864;52.002;5.468;2023-02-27T03:17:23;13.55;;;3.92;;
68074;SDS011;54864;52.002;5.468;2023-02-27T03:18:31;10.02;;;4.20;;
68074;SDS011;54864;52.002;5.468;2023-02-27T03:19:37;12.63;;;4.00;;
68074;SDS011;54864;52.002;5.468;2023-02-27T03:20:44;8.50;;;3.17;;
68074;SDS011;54864;52.002;5.468;2023-02-27T03:21:49;10.73;;;3.60;;
68074;SDS011;54864;52.002;5.468;2023-02-27T03:22:55;11.25;;;3.97;;
68074;SDS011;54864;52.002;5.468;2023-02-27T03:24:04;8.18;;;3.42;;
68074;SDS011;54864;52.002;5.468;2023-02-27T03:25:11;8.95;;;4.10;;
68074;SDS011;54864;52.002;5.468;2023-02-27T03:26:14;11.40;;;3.47;;
68074;SDS011;54864;52.002;5.468;2023-02-27T03:27:19;11.05;;;3.70;;
68074;SDS011;54864;52.002;5.468;2023-02-27T03:28:22;7.82;;;3.67;;
68074;SDS011;54864;52.002;5.468;2023-02-27T03:29:30;9.30;;;3.80;;
68074;SDS011;54864;52.002;5.468;2023-02-27T03:30:39;10.32;;;3.65;;
68074;SDS011;54864;52.002;5.468;2023-02-27T03:31:45;7.72;;;3.20;;
68074;SDS011;54864;52.002;5.468;2023-02-27T03:32:52;11.30;;;3.47;;
68074;SDS011;54864;52.002;5.468;2023-02-27T03:34:01;9.35;;;3.22;;
68074;SDS011;54864;52.002;5.468;2023-02-27T03:35:08;11.15;;;3.88;;
68074;SDS011;54864;52.002;5.468;2023-02-27T03:36:14;8.43;;;3.42;;
68074;SDS011;54864;52.002;5.468;2023-02-27T03:37:28;10.23;;;3.50;;
68074;SDS011;54864;52.002;5.468;2023-02-27T03:38:47;9.77;;;3.63;;
68074;SDS011;54864;52.002;5.468;2023-02-27T03:39:57;10.10;;;3.10;;
68074;SDS011;54864;52.002;5.468;2023-02-27T03:41:08;10.65;;;3.45;;
68074;SDS011;54864;52.002;5.468;2023-02-27T03:42:14;9.07;;;3.47;;
68074;SDS011;54864;52.002;5.468;2023-02-27T03:43:26;9.43;;;3.58;;
68074;SDS011;54864;52.002;5.468;2023-02-27T03:44:37;7.55;;;3.05;;
68074;SDS011;54864;52.002;5.468;2023-02-27T03:45:50;10.38;;;3.35;;
68074;SDS011;54864;52.002;5.468;2023-02-27T03:46:55;10.47;;;3.27;;
68074;SDS011;54864;52.002;5.468;2023-02-27T03:47:57;14.97;;;4.20;;
68074;SDS011;54864;52.002;5.468;2023-02-27T03:48:59;9.45;;;3.42;;
68074;SDS011;54864;52.002;5.468;2023-02-27T03:50:00;6.10;;;3.17;;
68074;SDS011;54864;52.002;5.468;2023-02-27T03:51:02;8.05;;;2.88;;
68074;SDS011;54864;52.002;5.468;2023-02-27T03:52:04;10.43;;;3.08;;
68074;SDS011;54864;52.002;5.468;2023-02-27T03:53:05;8.85;;;3.53;;
68074;SDS011;54864;52.002;5.468;2023-02-27T03:54:22;10.30;;;3.50;;
68074;SDS011;54864;52.002;5.468;2023-02-27T03:55:31;9.55;;;3.38;;
68074;SDS011;54864;52.002;5.468;2023-02-27T03:56:39;8.77;;;2.88;;
68074;SDS011;54864;52.002;5.468;2023-02-27T03:57:47;7.72;;;3.00;;
68074;SDS011;54864;52.002;5.468;2023-02-27T03:58:51;9.95;;;3.17;;
68074;SDS011;54864;52.002;5.468;2023-02-27T03:59:52;8.13;;;3.38;;
68074;SDS011;54864;52.002;5.468;2023-02-27T04:00:54;14.55;;;3.40;;
68074;SDS011;54864;52.002;5.468;2023-02-27T04:01:56;5.05;;;2.83;;
68074;SDS011;54864;52.002;5.468;2023-02-27T04:02:59;5.63;;;2.70;;
68074;SDS011;54864;52.002;5.468;2023-02-27T04:04:02;9.32;;;3.20;;
68074;SDS011;54864;52.002;5.468;2023-02-27T04:05:07;12.25;;;3.28;;
68074;SDS011;54864;52.002;5.468;2023-02-27T04:06:08;11.13;;;3.25;;
68074;SDS011;54864;52.002;5.468;2023-02-27T04:07:26;12.15;;;3.58;;
68074;SDS011;54864;52.002;5.468;2023-02-27T04:08:38;12.63;;;3.03;;
68074;SDS011;54864;52.002;5.468;2023-02-27T04:10:04;9.63;;;3.38;;
68074;SDS011;54864;52.002;5.468;2023-02-27T04:11:25;7.30;;;3.13;;
68074;SDS011;54864;52.002;5.468;2023-02-27T04:12:39;10.32;;;3.42;;
68074;SDS011;54864;52.002;5.468;2023-02-27T04:14:04;9.82;;;3.17;;
68074;SDS011;54864;52.002;5.468;2023-02-27T04:15:15;9.57;;;3.10;;
68074;SDS011;54864;52.002;5.468;2023-02-27T04:16:39;11.20;;;3.45;;
68074;SDS011;54864;52.002;5.468;2023-02-27T04:17:47;10.32;;;3.05;;
68074;SDS011;54864;52.002;5.468;2023-02-27T04:19:01;7.25;;;3.50;;
68074;SDS011;54864;52.002;5.468;2023-02-27T04:20:19;9.50;;;3.25;;
68074;SDS011;54864;52.002;5.468;2023-02-27T04:21:31;14.02;;;3.72;;
68074;SDS011;54864;52.002;5.468;2023-02-27T04:22:39;8.98;;;3.42;;
68074;SDS011;54864;52.002;5.468;2023-02-27T04:23:45;10.07;;;4.07;;
68074;SDS011;54864;52.002;5.468;2023-02-27T04:24:51;9.80;;;3.72;;
68074;SDS011;54864;52.002;5.468;2023-02-27T04:26:05;12.32;;;4.03;;
68074;SDS011;54864;52.002;5.468;2023-02-27T04:27:17;14.02;;;3.83;;
68074;SDS011;54864;52.002;5.468;2023-02-27T04:28:26;14.32;;;3.80;;
68074;SDS011;54864;52.002;5.468;2023-02-27T04:29:37;6.43;;;3.45;;
68074;SDS011;54864;52.002;5.468;2023-02-27T04:32:46;11.68;;;3.58;;
68074;SDS011;54864;52.002;5.468;2023-02-27T04:33:53;12.50;;;4.18;;
68074;SDS011;54864;52.002;5.468;2023-02-27T04:35:04;9.13;;;3.90;;
68074;SDS011;54864;52.002;5.468;2023-02-27T04:36:11;11.90;;;3.78;;
68074;SDS011;54864;52.002;5.468;2023-02-27T04:37:19;9.63;;;3.55;;
68074;SDS011;54864;52.002;5.468;2023-02-27T04:38:26;9.50;;;3.60;;
68074;SDS011;54864;52.002;5.468;2023-02-27T04:39:33;11.38;;;3.60;;
68074;SDS011;54864;52.002;5.468;2023-02-27T04:40:39;11.48;;;4.43;;
68074;SDS011;54864;52.002;5.468;2023-02-27T04:41:48;18.95;;;3.78;;
68074;SDS011;54864;52.002;5.468;2023-02-27T04:42:54;10.13;;;3.70;;
68074;SDS011;54864;52.002;5.468;2023-02-27T04:43:58;9.68;;;3.90;;
68074;SDS011;54864;52.002;5.468;2023-02-27T04:45:03;10.80;;;3.80;;
68074;SDS011;54864;52.002;5.468;2023-02-27T04:46:07;13.40;;;3.90;;
68074;SDS011;54864;52.002;5.468;2023-02-27T04:47:13;11.00;;;3.70;;
68074;SDS011;54864;52.002;5.468;2023-02-27T04:48:20;9.23;;;4.10;;
68074;SDS011;54864;52.002;5.468;2023-02-27T04:49:25;9.10;;;3.60;;
68074;SDS011;54864;52.002;5.468;2023-02-27T04:50:32;11.38;;;3.70;;
68074;SDS011;54864;52.002;5.468;2023-02-27T04:51:37;10.90;;;3.85;;
68074;SDS011;54864;52.002;5.468;2023-02-27T04:52:46;9.27;;;4.00;;
68074;SDS011;54864;52.002;5.468;2023-02-27T04:53:53;9.25;;;3.65;;
68074;SDS011;54864;52.002;5.468;2023-02-27T04:55:00;11.77;;;3.92;;
68074;SDS011;54864;52.002;5.468;2023-02-27T04:56:07;7.43;;;3.65;;
68074;SDS011;54864;52.002;5.468;2023-02-27T04:57:14;11.88;;;3.38;;
68074;SDS011;54864;52.002;5.468;2023-02-27T04:58:19;10.50;;;3.45;;
68074;SDS011;54864;52.002;5.468;2023-02-27T04:59:28;10.77;;;4.35;;
68074;SDS011;54864;52.002;5.468;2023-02-27T05:00:33;9.50;;;4.00;;
68074;SDS011;54864;52.002;5.468;2023-02-27T05:01:40;9.18;;;3.53;;
68074;SDS011;54864;52.002;5.468;2023-02-27T05:02:45;10.27;;;4.05;;
68074;SDS011;54864;52.002;5.468;2023-02-27T05:03:52;8.77;;;3.90;;
68074;SDS011;54864;52.002;5.468;2023-02-27T05:04:56;8.98;;;3.47;;
68074;SDS011;54864;52.002;5.468;2023-02-27T05:06:03;10.23;;;3.55;;
68074;SDS011;54864;52.002;5.468;2023-02-27T05:07:05;9.50;;;3.88;;
68074;SDS011;54864;52.002;5.468;2023-02-27T05:08:13;9.68;;;3.50;;
68074;SDS011;54864;52.002;5.468;2023-02-27T05:09:23;8.27;;;3.25;;
68074;SDS011;54864;52.002;5.468;2023-02-27T05:10:31;15.05;;;4.25;;
68074;SDS011;54864;52.002;5.468;2023-02-27T05:11:40;9.60;;;3.87;;
68074;SDS011;54864;52.002;5.468;2023-02-27T05:12:46;11.68;;;3.97;;
68074;SDS011;54864;52.002;5.468;2023-02-27T05:13:52;8.38;;;3.75;;
68074;SDS011;54864;52.002;5.468;2023-02-27T05:14:58;10.27;;;3.67;;
68074;SDS011;54864;52.002;5.468;2023-02-27T05:16:06;10.90;;;3.97;;
68074;SDS011;54864;52.002;5.468;2023-02-27T05:17:15;10.63;;;3.55;;
68074;SDS011;54864;52.002;5.468;2023-02-27T05:18:21;8.65;;;4.28;;
68074;SDS011;54864;52.002;5.468;2023-02-27T05:19:23;9.30;;;3.53;;
68074;SDS011;54864;52.002;5.468;2023-02-27T05:20:26;8.82;;;3.75;;
68074;SDS011;54864;52.002;5.468;2023-02-27T05:21:34;10.82;;;4.20;;
68074;SDS011;54864;52.002;5.468;2023-02-27T05:22:40;11.07;;;4.25;;
68074;SDS011;54864;52.002;5.468;2023-02-27T05:23:53;9.60;;;3.85;;
68074;SDS011;54864;52.002;5.468;2023-02-27T05:25:04;10.32;;;3.85;;
68074;SDS011;54864;52.002;5.468;2023-02-27T05:26:15;12.40;;;4.82;;
68074;SDS011;54864;52.002;5.468;2023-02-27T05:27:22;17.65;;;4.55;;
68074;SDS011;54864;52.002;5.468;2023-02-27T05:28:32;14.75;;;4.55;;
68074;SDS011;54864;52.002;5.468;2023-02-27T05:29:40;10.27;;;3.92;;
68074;SDS011;54864;52.002;5.468;2023-02-27T05:30:50;11.93;;;4.50;;
68074;SDS011;54864;52.002;5.468;2023-02-27T05:32:01;8.88;;;4.45;;
68074;SDS011;54864;52.002;5.468;2023-02-27T05:33:07;12.13;;;4.43;;
68074;SDS011;54864;52.002;5.468;2023-02-27T05:34:16;10.00;;;4.18;;
68074;SDS011;54864;52.002;5.468;2023-02-27T05:35:23;13.43;;;4.38;;
68074;SDS011;54864;52.002;5.468;2023-02-27T05:36:30;15.20;;;4.40;;
68074;SDS011;54864;52.002;5.468;2023-02-27T05:37:37;10.50;;;4.80;;
68074;SDS011;54864;52.002;5.468;2023-02-27T05:38:48;12.85;;;4.60;;
68074;SDS011;54864;52.002;5.468;2023-02-27T05:39:52;11.83;;;4.80;;
68074;SDS011;54864;52.002;5.468;2023-02-27T05:40:56;8.27;;;4.00;;
68074;SDS011;54864;52.002;5.468;2023-02-27T05:42:01;14.70;;;4.75;;
68074;SDS011;54864;52.002;5.468;2023-02-27T05:43:08;13.85;;;4.85;;
68074;SDS011;54864;52.002;5.468;2023-02-27T05:44:12;8.35;;;4.30;;
68074;SDS011;54864;52.002;5.468;2023-02-27T05:45:18;14.85;;;4.35;;
68074;SDS011;54864;52.002;5.468;2023-02-27T05:46:23;11.27;;;4.30;;
68074;SDS011;54864;52.002;5.468;2023-02-27T05:47:30;11.07;;;4.38;;
68074;SDS011;54864;52.002;5.468;2023-02-27T05:48:34;12.05;;;4.30;;
68074;SDS011;54864;52.002;5.468;2023-02-27T05:49:39;11.05;;;4.75;;
68074;SDS011;54864;52.002;5.468;2023-02-27T05:50:46;10.95;;;4.70;;
68074;SDS011;54864;52.002;5.468;2023-02-27T05:51:52;11.70;;;4.40;;
68074;SDS011;54864;52.002;5.468;2023-02-27T05:52:56;11.65;;;4.60;;
68074;SDS011;54864;52.002;5.468;2023-02-27T05:54:01;13.18;;;4.10;;
68074;SDS011;54864;52.002;5.468;2023-02-27T05:55:07;11.52;;;4.63;;
68074;SDS011;54864;52.002;5.468;2023-02-27T05:56:14;10.75;;;4.57;;
68074;SDS011;54864;52.002;5.468;2023-02-27T05:57:21;9.27;;;4.43;;
68074;SDS011;54864;52.002;5.468;2023-02-27T05:58:27;12.52;;;4.50;;
68074;SDS011;54864;52.002;5.468;2023-02-27T05:59:33;12.07;;;4.35;;
68074;SDS011;54864;52.002;5.468;2023-02-27T06:00:38;9.70;;;4.07;;
68074;SDS011;54864;52.002;5.468;2023-02-27T06:01:48;9.80;;;4.22;;
68074;SDS011;54864;52.002;5.468;2023-02-27T06:02:49;10.25;;;4.22;;
68074;SDS011;54864;52.002;5.468;2023-02-27T06:03:51;13.70;;;4.43;;
68074;SDS011;54864;52.002;5.468;2023-02-27T06:04:53;20.08;;;4.38;;
68074;SDS011;54864;52.002;5.468;2023-02-27T06:05:56;15.63;;;4.90;;
68074;SDS011;54864;52.002;5.468;2023-02-27T06:07:01;12.05;;;4.57;;
68074;SDS011;54864;52.002;5.468;2023-02-27T06:08:06;10.95;;;4.60;;
68074;SDS011;54864;52.002;5.468;2023-02-27T06:09:07;12.63;;;4.47;;
68074;SDS011;54864;52.002;5.468;2023-02-27T06:10:10;15.75;;;4.93;;
68074;SDS011;54864;52.002;5.468;2023-02-27T06:11:13;9.85;;;4.68;;
68074;SDS011;54864;52.002;5.468;2023-02-27T06:12:14;9.88;;;4.20;;
68074;SDS011;54864;52.002;5.468;2023-02-27T06:13:15;9.70;;;4.13;;
68074;SDS011;54864;52.002;5.468;2023-02-27T06:14:18;13.90;;;4.72;;
68074;SDS011;54864;52.002;5.468;2023-02-27T06:15:19;13.77;;;4.78;;
68074;SDS011;54864;52.002;5.468;2023-02-27T06:16:22;8.88;;;4.40;;
68074;SDS011;54864;52.002;5.468;2023-02-27T06:17:24;12.40;;;4.88;;
68074;SDS011;54864;52.002;5.468;2023-02-27T06:18:26;12.80;;;5.35;;
68074;SDS011;54864;52.002;5.468;2023-02-27T06:19:28;10.40;;;4.13;;
68074;SDS011;54864;52.002;5.468;2023-02-27T06:20:29;12.52;;;4.50;;
68074;SDS011;54864;52.002;5.468;2023-02-27T06:21:32;14.10;;;4.50;;
68074;SDS011;54864;52.002;5.468;2023-02-27T06:22:33;8.25;;;3.97;;
68074;SDS011;54864;52.002;5.468;2023-02-27T06:23:35;12.02;;;4.55;;
68074;SDS011;54864;52.002;5.468;2023-02-27T06:24:36;9.83;;;4.30;;
68074;SDS011;54864;52.002;5.468;2023-02-27T06:25:39;12.68;;;4.50;;
68074;SDS011;54864;52.002;5.468;2023-02-27T06:26:41;14.00;;;4.68;;
68074;SDS011;54864;52.002;5.468;2023-02-27T06:27:43;9.95;;;4.88;;
68074;SDS011;54864;52.002;5.468;2023-02-27T06:28:44;12.27;;;4.40;;
68074;SDS011;54864;52.002;5.468;2023-02-27T06:29:49;11.82;;;4.78;;
68074;SDS011;54864;52.002;5.468;2023-02-27T06:30:51;17.57;;;4.97;;
68074;SDS011;54864;52.002;5.468;2023-02-27T06:31:53;14.05;;;4.95;;
68074;SDS011;54864;52.002;5.468;2023-02-27T06:32:59;14.88;;;4.40;;
68074;SDS011;54864;52.002;5.468;2023-02-27T06:34:01;13.68;;;5.20;;
68074;SDS011;54864;52.002;5.468;2023-02-27T06:35:02;14.02;;;4.72;;
68074;SDS011;54864;52.002;5.468;2023-02-27T06:36:04;12.15;;;4.55;;
68074;SDS011;54864;52.002;5.468;2023-02-27T06:37:07;16.60;;;5.03;;
68074;SDS011;54864;52.002;5.468;2023-02-27T06:38:08;10.95;;;4.45;;
68074;SDS011;54864;52.002;5.468;2023-02-27T06:39:10;15.53;;;5.17;;
68074;SDS011;54864;52.002;5.468;2023-02-27T06:40:11;14.73;;;4.70;;